createdAt,value
2019-01-25T00:01:15.466Z,68.93
2019-01-25T00:03:44.923Z,68.60
2019-01-25T00:06:14.285Z,68.23
2019-01-25T00:08:43.705Z,74.57
2019-01-25T00:11:13.068Z,69.47
2019-01-25T00:13:42.444Z,68.07
2019-01-25T00:16:12.132Z,68.73
2019-01-25T00:18:41.516Z,70.10
2019-01-25T00:21:10.882Z,70.30
2019-01-25T00:23:40.734Z,60.23
2019-01-25T00:26:10.272Z,69.67
2019-01-25T00:28:39.683Z,72.23
2019-01-25T00:31:09.102Z,66.00
2019-01-25T00:33:38.495Z,69.80
2019-01-25T00:36:07.924Z,68.80
2019-01-25T00:38:37.377Z,74.33
2019-01-25T00:41:06.837Z,67.90
2019-01-25T00:43:36.512Z,73.07
2019-01-25T00:46:05.925Z,70.93
2019-01-25T00:48:35.634Z,62.47
2019-01-25T00:51:05.093Z,68.07
2019-01-25T00:53:34.453Z,69.67
2019-01-25T00:56:04.641Z,73.20
2019-01-25T00:58:33.999Z,69.60
2019-01-25T01:01:03.788Z,65.60
2019-01-25T01:03:33.481Z,76.50
2019-01-25T01:06:03.241Z,65.20
2019-01-25T01:08:33.007Z,67.13
2019-01-25T01:11:02.469Z,57.73
2019-01-25T01:13:31.834Z,63.33
2019-01-25T01:16:01.217Z,62.53
2019-01-25T01:18:30.588Z,72.33
2019-01-25T01:20:59.978Z,73.60
2019-01-25T01:23:29.351Z,70.73
2019-01-25T01:25:58.813Z,76.07
2019-01-25T01:28:28.178Z,65.20
2019-01-25T01:30:57.636Z,77.50
2019-01-25T01:33:27.005Z,64.07
2019-01-25T01:35:56.748Z,58.47
2019-01-25T01:38:26.180Z,68.30
2019-01-25T01:40:55.871Z,75.00
2019-01-25T01:43:25.312Z,68.13
2019-01-25T01:45:54.773Z,65.97
2019-01-25T01:48:24.511Z,68.77
2019-01-25T01:50:53.900Z,68.47
2019-01-25T01:53:23.284Z,62.60
2019-01-25T01:55:52.834Z,72.67
2019-01-25T01:58:22.267Z,63.23
2019-01-25T02:00:52.207Z,66.50
2019-01-25T02:03:21.684Z,63.63
2019-01-25T02:05:51.842Z,70.17
2019-01-25T02:08:21.276Z,74.27
2019-01-25T02:10:51.359Z,67.10
2019-01-25T02:13:21.173Z,71.27
2019-01-25T02:15:50.926Z,67.57
2019-01-25T02:18:20.336Z,65.23
2019-01-25T02:20:50.001Z,79.07
2019-01-25T02:23:19.400Z,67.93
2019-01-25T02:25:49.028Z,68.10
2019-01-25T02:28:18.821Z,63.93
2019-01-25T02:30:48.188Z,77.17
2019-01-25T02:33:17.581Z,67.17
2019-01-25T02:35:47.016Z,70.17
2019-01-25T02:38:16.794Z,75.37
2019-01-25T02:40:46.526Z,73.27
2019-01-25T02:43:16.748Z,71.37
2019-01-25T02:45:46.491Z,70.23
2019-01-25T02:48:16.265Z,75.10
2019-01-25T02:50:45.630Z,73.60
2019-01-25T02:53:15.442Z,71.47
2019-01-25T02:55:45.234Z,72.23
2019-01-25T02:58:14.778Z,71.97
2019-01-25T03:00:44.205Z,68.80
2019-01-25T03:03:13.620Z,67.13
2019-01-25T03:05:42.973Z,70.73
2019-01-25T03:08:12.437Z,79.47
2019-01-25T03:10:47.085Z,68.07
2019-01-25T03:13:13.735Z,77.33
2019-01-25T03:15:43.181Z,65.67
2019-01-25T03:18:12.929Z,71.57
2019-01-25T03:20:42.389Z,63.30
2019-01-25T03:23:11.835Z,72.87
2019-01-25T03:25:41.303Z,64.77
2019-01-25T03:28:10.878Z,68.70
2019-01-25T03:30:40.365Z,76.93
2019-01-25T03:33:09.830Z,72.17
2019-01-25T03:35:39.685Z,70.37
2019-01-25T03:38:09.120Z,66.13
2019-01-25T03:40:38.515Z,76.47
2019-01-25T03:43:08.027Z,78.57
2019-01-25T03:45:37.524Z,65.97
2019-01-25T03:48:07.008Z,76.40
2019-01-25T03:50:36.651Z,68.00
2019-01-25T03:53:06.096Z,72.87
2019-01-25T03:55:35.564Z,70.57
2019-01-25T03:58:05.033Z,69.87
2019-01-25T04:00:34.417Z,71.57
2019-01-25T04:03:03.912Z,70.47
2019-01-25T04:05:33.300Z,77.03
2019-01-25T04:08:02.672Z,75.50
2019-01-25T04:10:32.123Z,64.80
2019-01-25T04:13:01.502Z,75.80
2019-01-25T04:15:32.991Z,79.80
2019-01-25T04:18:02.625Z,68.60
2019-01-25T04:20:32.089Z,69.20
2019-01-25T04:23:01.449Z,69.80
2019-01-25T04:25:30.834Z,75.40
2019-01-25T04:28:00.277Z,73.63
2019-01-25T04:30:32.868Z,66.00
2019-01-25T04:33:02.340Z,70.37
2019-01-25T04:35:31.803Z,76.10
2019-01-25T04:38:01.236Z,66.00
2019-01-25T04:40:30.633Z,72.10
2019-01-25T04:43:00.004Z,62.63
2019-01-25T04:45:30.047Z,68.40
2019-01-25T04:47:59.511Z,64.27
2019-01-25T04:50:28.983Z,67.70
2019-01-25T04:52:58.448Z,71.83
2019-01-25T04:55:29.761Z,64.07
2019-01-25T04:58:11.591Z,75.37
2019-01-25T05:00:41.027Z,67.57
2019-01-25T05:03:10.513Z,70.13
2019-01-25T05:05:40.294Z,71.17
2019-01-25T05:08:18.089Z,73.77
2019-01-25T05:10:47.564Z,66.47
2019-01-25T05:13:17.124Z,71.53
2019-01-25T05:15:46.626Z,73.23
2019-01-25T05:18:16.358Z,74.50
2019-01-25T05:20:45.773Z,71.43
2019-01-25T05:23:15.235Z,78.60
2019-01-25T05:25:44.691Z,78.30
2019-01-25T05:28:22.953Z,72.33
2019-01-25T05:31:05.154Z,65.93
2019-01-25T05:33:34.631Z,80.17
2019-01-25T05:36:04.645Z,76.67
2019-01-25T05:38:34.108Z,76.57
2019-01-25T05:41:03.566Z,82.40
2019-01-25T05:43:41.446Z,72.13
2019-01-25T05:46:10.986Z,72.83
2019-01-25T05:48:40.489Z,79.43
2019-01-25T05:51:10.261Z,79.30
2019-01-25T05:53:41.979Z,85.43
2019-01-25T05:56:11.468Z,73.87
2019-01-25T05:58:41.142Z,79.60
2019-01-25T06:01:10.568Z,71.13
2019-01-25T06:03:39.984Z,81.50
2019-01-25T06:06:10.166Z,75.87
2019-01-25T06:08:44.114Z,81.23
2019-01-25T06:11:11.994Z,79.73
2019-01-25T06:13:43.047Z,82.97
2019-01-25T06:16:12.654Z,82.83
2019-01-25T06:18:42.048Z,82.60
2019-01-25T06:21:11.663Z,76.40
2019-01-25T06:23:41.249Z,81.50
2019-01-25T06:26:12.209Z,80.33
2019-01-25T06:28:41.701Z,76.07
2019-01-25T06:31:11.177Z,83.50
2019-01-25T06:33:40.654Z,77.53
2019-01-25T06:36:10.021Z,82.60
2019-01-25T06:38:39.421Z,88.63
2019-01-25T06:41:09.204Z,80.67
2019-01-25T06:43:38.593Z,86.53
2019-01-25T06:46:07.973Z,82.87
2019-01-25T06:48:37.425Z,90.03
2019-01-25T06:51:07.239Z,97.60
2019-01-25T06:53:36.800Z,89.03
2019-01-25T06:56:06.236Z,91.90
2019-01-25T06:59:00.143Z,90.70
2019-01-25T07:01:47.202Z,95.57
2019-01-25T07:04:16.605Z,111.80
2019-01-25T07:06:46.016Z,97.33
2019-01-25T07:09:15.401Z,103.03
2019-01-25T07:11:51.249Z,91.07
2019-01-25T07:14:16.267Z,99.53
2019-01-25T07:16:45.680Z,103.00
2019-01-25T07:19:15.049Z,99.20
2019-01-25T07:21:44.792Z,110.00
2019-01-25T07:24:14.189Z,90.57
2019-01-25T07:26:43.564Z,101.97
2019-01-25T07:29:13.056Z,102.67
2019-01-25T07:31:42.582Z,106.10
2019-01-25T07:34:12.065Z,90.57
2019-01-25T07:36:41.862Z,109.17
2019-01-25T07:39:25.476Z,101.23
2019-01-25T07:41:59.589Z,105.13
2019-01-25T07:44:26.385Z,111.67
2019-01-25T07:46:56.122Z,101.30
2019-01-25T07:49:25.916Z,102.67
2019-01-25T07:51:55.336Z,105.77
2019-01-25T07:54:24.810Z,106.40
2019-01-25T07:56:54.258Z,111.87
2019-01-25T07:59:23.671Z,102.17
2019-01-25T08:01:53.149Z,98.20
2019-01-25T08:04:22.986Z,108.20
2019-01-25T08:06:52.801Z,107.90
2019-01-25T08:09:22.613Z,110.00
2019-01-25T08:11:52.041Z,105.07
2019-01-25T08:14:22.122Z,110.90
2019-01-25T08:16:51.929Z,111.47
2019-01-25T08:19:21.763Z,102.77
2019-01-25T08:21:51.603Z,111.97
2019-01-25T08:24:21.060Z,111.03
2019-01-25T08:26:50.603Z,109.93
2019-01-25T08:29:27.715Z,117.10
2019-01-25T08:31:51.829Z,106.90
2019-01-25T08:34:21.395Z,103.50
2019-01-25T08:36:50.846Z,111.17
2019-01-25T08:39:20.660Z,106.43
2019-01-25T08:41:50.222Z,114.07
2019-01-25T08:44:19.779Z,111.30
2019-01-25T08:46:49.241Z,103.20
2019-01-25T08:49:18.991Z,103.20
2019-01-25T08:51:48.461Z,91.03
2019-01-25T08:54:17.911Z,111.60
2019-01-25T08:56:47.709Z,118.23
2019-01-25T08:59:17.229Z,106.17
2019-01-25T09:01:46.718Z,111.03
2019-01-25T09:04:16.100Z,111.87
2019-01-25T09:06:45.503Z,111.87
2019-01-25T09:09:15.044Z,109.43
2019-01-25T09:11:44.453Z,129.03
2019-01-25T09:14:13.905Z,107.77
2019-01-25T09:16:43.874Z,103.33
2019-01-25T09:19:13.244Z,109.13
2019-01-25T09:21:42.657Z,112.53
2019-01-25T09:24:12.195Z,102.53
2019-01-25T09:26:41.721Z,108.03
2019-01-25T09:29:12.105Z,102.83
2019-01-25T09:31:42.219Z,104.83
2019-01-25T09:34:11.653Z,113.00
2019-01-25T09:36:41.048Z,105.57
2019-01-25T09:39:11.141Z,108.00
2019-01-25T09:41:40.601Z,107.00
2019-01-25T09:44:09.977Z,116.37
2019-01-25T09:46:39.657Z,110.43
2019-01-25T09:49:09.111Z,109.40
2019-01-25T09:51:38.980Z,104.30
2019-01-25T09:54:08.419Z,113.63
2019-01-25T09:56:37.824Z,100.90
2019-01-25T09:59:07.805Z,121.10
2019-01-25T10:01:37.316Z,99.80
2019-01-25T10:04:07.944Z,110.07
2019-01-25T10:06:37.327Z,99.83
2019-01-25T10:09:09.426Z,113.43
2019-01-25T10:11:38.869Z,96.40
2019-01-25T10:14:08.268Z,102.00
2019-01-25T10:16:37.654Z,106.00
2019-01-25T10:19:07.132Z,94.63
2019-01-25T10:21:36.938Z,96.63
2019-01-25T10:24:06.745Z,103.83
2019-01-25T10:26:36.125Z,104.27
2019-01-25T10:29:05.736Z,106.37
2019-01-25T10:31:35.470Z,122.50
2019-01-25T10:34:05.230Z,92.13
2019-01-25T10:36:34.611Z,101.77
2019-01-25T10:39:05.826Z,99.10
2019-01-25T10:41:35.613Z,101.60
2019-01-25T10:44:06.790Z,106.83
2019-01-25T10:46:36.229Z,102.90
2019-01-25T10:49:05.819Z,111.90
2019-01-25T10:51:35.610Z,106.50
2019-01-25T10:54:05.633Z,108.27
2019-01-25T10:56:35.441Z,109.53
2019-01-25T10:59:04.923Z,128.70
2019-01-25T11:01:34.589Z,119.33
2019-01-25T11:04:03.983Z,103.23
2019-01-25T11:06:33.667Z,114.17
2019-01-25T11:09:04.818Z,106.43
2019-01-25T11:11:34.264Z,113.77
2019-01-25T11:14:03.792Z,109.37
2019-01-25T11:16:33.237Z,108.40
2019-01-25T11:19:02.961Z,102.83
2019-01-25T11:21:37.407Z,114.67
2019-01-25T11:24:07.874Z,96.23
2019-01-25T11:26:35.574Z,104.47
2019-01-25T11:29:05.660Z,102.47
2019-01-25T11:31:36.173Z,88.40
2019-01-25T11:34:05.574Z,92.60
2019-01-25T11:36:35.013Z,92.43
2019-01-25T11:39:07.169Z,109.93
2019-01-25T11:41:36.880Z,94.10
2019-01-25T11:44:06.360Z,113.80
2019-01-25T11:46:35.726Z,96.57
2019-01-25T11:49:05.177Z,97.37
2019-01-25T11:51:34.546Z,94.73
2019-01-25T11:54:04.008Z,95.00
2019-01-25T11:56:33.706Z,98.43
2019-01-25T11:59:03.192Z,89.23
2019-01-25T12:01:32.564Z,93.40
2019-01-25T12:04:02.429Z,86.77
2019-01-25T12:06:31.883Z,82.47
2019-01-25T12:09:01.349Z,86.03
2019-01-25T12:11:30.708Z,85.17
2019-01-25T12:14:00.101Z,81.70
2019-01-25T12:16:29.584Z,75.33
2019-01-25T12:18:59.769Z,78.97
2019-01-25T12:21:29.581Z,69.47
2019-01-25T12:23:59.027Z,64.73
2019-01-25T12:26:28.492Z,64.47
2019-01-25T12:28:57.874Z,52.90
2019-01-25T12:31:27.348Z,57.23
2019-01-25T12:33:56.717Z,57.07
2019-01-25T12:36:26.189Z,48.87
2019-01-25T12:38:55.635Z,46.43
2019-01-25T12:41:25.101Z,50.50
2019-01-25T12:43:54.822Z,47.80
2019-01-25T12:46:25.773Z,41.03
2019-01-25T12:48:55.876Z,41.03
2019-01-25T12:51:34.032Z,36.90
2019-01-25T12:54:03.505Z,31.07
2019-01-25T12:56:32.898Z,38.17
2019-01-25T12:59:02.270Z,32.23
2019-01-25T13:01:35.132Z,34.97
2019-01-25T13:04:02.933Z,26.70
2019-01-25T13:06:32.329Z,22.50
2019-01-25T13:09:01.705Z,22.00
2019-01-25T13:11:31.109Z,19.87
2019-01-25T13:14:00.476Z,18.07
2019-01-25T13:16:29.937Z,20.03
2019-01-25T13:18:59.304Z,33.43
2019-01-25T13:21:29.079Z,44.80
2019-01-25T13:23:58.504Z,45.63
2019-01-25T13:26:28.184Z,50.30
2019-01-25T13:28:57.625Z,42.23
2019-01-25T13:31:27.414Z,46.30
2019-01-25T13:33:56.857Z,36.60
2019-01-25T13:36:26.320Z,47.33
2019-01-25T13:38:55.757Z,41.03
2019-01-25T13:41:27.448Z,39.03
2019-01-25T13:43:56.653Z,37.50
2019-01-25T13:46:26.093Z,39.57
2019-01-25T13:48:55.564Z,44.50
2019-01-25T13:51:25.021Z,45.77
2019-01-25T13:53:54.803Z,39.70
2019-01-25T13:56:24.240Z,40.40
2019-01-25T13:58:54.008Z,37.60
2019-01-25T14:01:23.376Z,39.47
2019-01-25T14:03:52.777Z,41.70
2019-01-25T14:06:22.220Z,41.67
2019-01-25T14:08:53.487Z,41.67
2019-01-25T14:11:22.928Z,38.03
2019-01-25T14:13:52.477Z,40.70
2019-01-25T14:16:22.191Z,41.30
2019-01-25T14:18:52.653Z,38.33
2019-01-25T14:21:22.046Z,40.27
2019-01-25T14:23:51.729Z,38.73
2019-01-25T14:26:21.169Z,42.67
2019-01-25T14:28:50.569Z,39.83
2019-01-25T14:31:20.344Z,43.53
2019-01-25T14:33:50.070Z,35.50
2019-01-25T14:36:19.520Z,44.73
2019-01-25T14:38:48.896Z,36.23
2019-01-25T14:41:18.292Z,42.67
2019-01-25T14:43:54.230Z,42.57
2019-01-25T14:46:18.792Z,41.80
2019-01-25T14:48:48.233Z,38.97
2019-01-25T14:51:17.650Z,38.83
2019-01-25T14:53:50.929Z,43.30
2019-01-25T14:56:18.785Z,44.10
2019-01-25T14:58:48.490Z,40.53
2019-01-25T15:01:18.042Z,36.97
2019-01-25T15:03:48.108Z,42.43
2019-01-25T15:06:17.508Z,39.33
2019-01-25T15:08:47.229Z,39.63
2019-01-25T15:11:16.621Z,39.57
2019-01-25T15:13:46.073Z,45.37
2019-01-25T15:16:15.528Z,38.00
2019-01-25T15:18:44.964Z,42.07
2019-01-25T15:21:14.430Z,40.77
2019-01-25T15:23:43.793Z,43.30
2019-01-25T15:26:13.193Z,36.70
2019-01-25T15:28:42.640Z,39.07
2019-01-25T15:31:12.033Z,38.20
2019-01-25T15:33:41.481Z,42.43
2019-01-25T15:36:10.981Z,39.63
2019-01-25T15:38:40.686Z,49.50
2019-01-25T15:41:10.394Z,40.60
2019-01-25T15:43:40.128Z,36.30
2019-01-25T15:46:09.617Z,39.90
2019-01-25T15:48:38.991Z,39.83
2019-01-25T15:51:27.552Z,36.57
2019-01-25T15:53:56.997Z,37.53
2019-01-25T15:56:26.525Z,39.87
2019-01-25T15:58:55.945Z,32.37
2019-01-25T16:01:25.947Z,29.37
2019-01-25T16:03:55.804Z,29.87
2019-01-25T16:06:25.626Z,24.23
2019-01-25T16:08:55.437Z,19.77
2019-01-25T16:11:25.282Z,21.03
2019-01-25T16:13:54.673Z,16.00
2019-01-25T16:16:24.116Z,18.13
2019-01-25T16:18:53.612Z,17.60
2019-01-25T16:21:23.536Z,14.10
2019-01-25T16:24:12.388Z,14.63
2019-01-25T16:26:39.104Z,14.60
2019-01-25T16:29:08.505Z,14.20
2019-01-25T16:31:37.941Z,14.13
2019-01-25T16:34:07.339Z,16.73
2019-01-25T16:36:36.779Z,13.93
2019-01-25T16:39:09.060Z,15.27
2019-01-25T16:41:38.416Z,14.87
2019-01-25T16:44:07.838Z,16.77
2019-01-25T16:46:37.296Z,16.00
2019-01-25T16:49:06.675Z,17.43
2019-01-25T16:51:36.407Z,15.67
2019-01-25T16:54:06.037Z,19.17
2019-01-25T16:56:35.704Z,16.07
2019-01-25T16:59:06.028Z,18.23
2019-01-25T17:01:35.860Z,17.37
2019-01-25T17:04:05.898Z,18.17
2019-01-25T17:06:35.689Z,18.10
2019-01-25T17:09:08.142Z,18.07
2019-01-25T17:11:37.862Z,16.87
2019-01-25T17:14:07.671Z,18.03
2019-01-25T17:16:37.123Z,17.80
2019-01-25T17:19:06.934Z,19.83
2019-01-25T17:21:36.420Z,20.13
2019-01-25T17:24:06.193Z,21.57
2019-01-25T17:26:35.579Z,20.57
2019-01-25T17:29:05.924Z,21.37
2019-01-25T17:31:35.373Z,20.90
2019-01-25T17:34:04.891Z,25.03
2019-01-25T17:36:34.751Z,21.90
2019-01-25T17:39:06.426Z,31.03
2019-01-25T17:41:36.220Z,26.83
2019-01-25T17:44:05.750Z,25.93
2019-01-25T17:46:35.235Z,26.97
2019-01-25T17:49:04.678Z,29.07
2019-01-25T17:51:34.059Z,29.63
2019-01-25T17:54:03.430Z,26.30
2019-01-25T17:56:32.885Z,32.97
2019-01-25T17:59:02.346Z,31.53
2019-01-25T18:01:31.817Z,31.03
2019-01-25T18:04:01.685Z,27.70
2019-01-25T18:06:31.063Z,30.60
2019-01-25T18:09:00.429Z,27.43
2019-01-25T18:11:29.888Z,28.20
2019-01-25T18:13:59.265Z,29.00
2019-01-25T18:16:28.708Z,27.67
2019-01-25T18:18:58.064Z,26.93
2019-01-25T18:21:27.459Z,30.47
2019-01-25T18:23:56.811Z,31.27
2019-01-25T18:26:27.198Z,30.17
2019-01-25T18:29:12.060Z,31.80
2019-01-25T18:31:41.515Z,34.40
2019-01-25T18:34:13.616Z,30.30
2019-01-25T18:36:43.089Z,32.17
2019-01-25T18:39:12.458Z,39.83
2019-01-25T18:41:41.933Z,32.63
2019-01-25T18:44:11.357Z,36.47
2019-01-25T18:46:41.029Z,38.03
2019-01-25T18:49:10.466Z,42.03
2019-01-25T18:51:40.192Z,37.83
2019-01-25T18:54:09.752Z,36.27
2019-01-25T18:56:39.232Z,46.27
2019-01-25T18:59:08.957Z,37.60
2019-01-25T19:01:38.716Z,35.60
2019-01-25T19:04:08.110Z,35.97
2019-01-25T19:06:37.474Z,35.10
2019-01-25T19:09:08.981Z,36.13
2019-01-25T19:11:38.418Z,34.47
2019-01-25T19:14:08.004Z,37.10
2019-01-25T19:16:37.355Z,39.53
2019-01-25T19:19:06.740Z,36.20
2019-01-25T19:21:38.173Z,35.43
2019-01-25T19:24:07.817Z,40.33
2019-01-25T19:26:37.567Z,38.67
2019-01-25T19:29:07.400Z,37.23
2019-01-25T19:31:37.085Z,33.87
2019-01-25T19:34:06.463Z,35.47
2019-01-25T19:36:35.927Z,34.60
2019-01-25T19:39:12.729Z,32.47
2019-01-25T19:41:42.089Z,34.33
2019-01-25T19:44:11.841Z,34.00
2019-01-25T19:46:42.002Z,34.03
2019-01-25T19:49:11.743Z,32.50
2019-01-25T19:51:41.228Z,31.07
2019-01-25T19:54:10.929Z,34.53
2019-01-25T19:56:40.285Z,30.97
2019-01-25T19:59:09.686Z,31.10
2019-01-25T20:01:39.440Z,31.90
2019-01-25T20:04:09.391Z,30.93
2019-01-25T20:06:38.757Z,33.73
2019-01-25T20:09:10.810Z,31.00
2019-01-25T20:11:40.183Z,24.53
2019-01-25T20:14:09.645Z,27.13
2019-01-25T20:16:39.064Z,28.07
2019-01-25T20:19:08.856Z,27.90
2019-01-25T20:21:38.669Z,28.47
2019-01-25T20:24:08.486Z,28.07
2019-01-25T20:26:38.712Z,31.73
2019-01-25T20:29:08.171Z,25.90
2019-01-25T20:31:37.703Z,29.70
2019-01-25T20:34:07.426Z,28.63
2019-01-25T20:36:36.893Z,26.53
2019-01-25T20:39:08.790Z,32.93
2019-01-25T20:41:38.248Z,30.57
2019-01-25T20:44:07.732Z,27.10
2019-01-25T20:46:37.235Z,31.33
2019-01-25T20:49:06.849Z,32.37
2019-01-25T20:51:36.247Z,26.77
2019-01-25T20:54:05.934Z,28.37
2019-01-25T20:56:35.329Z,28.77
2019-01-25T20:59:05.141Z,26.07
2019-01-25T21:01:34.619Z,32.23
2019-01-25T21:04:03.980Z,25.67
2019-01-25T21:06:33.666Z,34.27
2019-01-25T21:09:04.087Z,29.30
2019-01-25T21:11:33.557Z,23.73
2019-01-25T21:14:03.000Z,29.20
2019-01-25T21:16:32.402Z,34.17
2019-01-25T21:19:01.838Z,26.23
2019-01-25T21:21:31.356Z,25.37
2019-01-25T21:24:01.146Z,24.00
2019-01-25T21:26:30.544Z,28.20
2019-01-25T21:28:59.984Z,25.40
2019-01-25T21:31:29.465Z,25.53
2019-01-25T21:33:59.138Z,26.63
2019-01-25T21:36:29.688Z,23.27
2019-01-25T21:38:59.123Z,24.30
2019-01-25T21:41:28.572Z,21.23
2019-01-25T21:43:57.993Z,27.40
2019-01-25T21:46:27.449Z,22.30
2019-01-25T21:48:56.845Z,21.40
2019-01-25T21:51:26.213Z,22.27
2019-01-25T21:53:56.172Z,24.60
2019-01-25T21:56:28.534Z,20.10
2019-01-25T21:58:58.074Z,21.17
2019-01-25T22:01:27.466Z,20.17
2019-01-25T22:03:56.947Z,19.17
2019-01-25T22:06:26.745Z,19.57
2019-01-25T22:08:56.212Z,19.30
2019-01-25T22:11:25.587Z,17.80
2019-01-25T22:13:54.989Z,17.30
2019-01-25T22:16:24.428Z,17.40
2019-01-25T22:18:53.979Z,17.53
2019-01-25T22:21:23.737Z,17.07
2019-01-25T22:23:53.221Z,17.40
2019-01-25T22:26:22.673Z,17.60
2019-01-25T22:28:52.085Z,16.10
2019-01-25T22:31:21.538Z,16.83
2019-01-25T22:33:51.312Z,17.30
2019-01-25T22:36:20.707Z,17.47
2019-01-25T22:38:50.177Z,16.73
2019-01-25T22:41:19.560Z,15.50
2019-01-25T22:43:49.388Z,17.60
2019-01-25T22:46:19.232Z,16.60
2019-01-25T22:48:49.021Z,16.70
2019-01-25T22:51:18.827Z,20.50
2019-01-25T22:54:07.353Z,17.90
2019-01-25T22:56:36.720Z,18.00
2019-01-25T22:59:06.131Z,18.53
2019-01-25T23:01:36.336Z,18.47
2019-01-25T23:04:32.542Z,20.13
2019-01-25T23:07:10.620Z,19.40
2019-01-25T23:09:43.329Z,21.47
2019-01-25T23:12:13.242Z,21.83
2019-01-25T23:14:42.708Z,21.83
2019-01-25T23:17:12.167Z,21.17
2019-01-25T23:19:41.645Z,21.43
2019-01-25T23:22:11.073Z,21.53
2019-01-25T23:24:40.448Z,21.50
2019-01-25T23:27:10.106Z,23.17
2019-01-25T23:29:39.571Z,22.70
2019-01-25T23:32:09.017Z,24.97
2019-01-25T23:34:38.391Z,27.33
2019-01-25T23:37:08.049Z,23.10
2019-01-25T23:39:37.429Z,23.67
2019-01-25T23:42:06.889Z,25.53
2019-01-25T23:44:36.640Z,26.20
2019-01-25T23:47:06.020Z,25.10
2019-01-25T23:49:35.761Z,22.13
2019-01-25T23:52:05.469Z,27.20
2019-01-25T23:54:34.825Z,25.63
2019-01-25T23:57:04.317Z,23.00
2019-01-25T23:59:33.751Z,38.00
